createdAt,value
2019-03-01T00:00:16.081Z,27.25
2019-03-01T00:02:43.373Z,16.40
2019-03-01T00:05:12.292Z,22.45
2019-03-01T00:07:57.465Z,16.07
2019-03-01T00:10:38.313Z,18.98
2019-03-01T00:13:23.721Z,18.10
2019-03-01T00:15:52.655Z,20.35
2019-03-01T00:18:24.290Z,15.00
2019-03-01T00:20:59.153Z,17.32
2019-03-01T00:23:39.748Z,14.78
2019-03-01T00:26:11.361Z,18.02
2019-03-01T00:28:49.253Z,14.15
2019-03-01T00:31:20.853Z,14.40
2019-03-01T00:33:55.516Z,17.20
2019-03-01T00:36:27.469Z,20.97
2019-03-01T00:39:12.603Z,17.82
2019-03-01T00:41:41.536Z,16.37
2019-03-01T00:44:13.377Z,17.92
2019-03-01T00:46:40.698Z,20.32
2019-03-01T00:49:08.015Z,20.65
2019-03-01T00:51:35.333Z,19.87
2019-03-01T00:54:02.633Z,18.25
2019-03-01T00:56:29.945Z,19.02
2019-03-01T00:58:57.251Z,21.37
2019-03-01T01:01:24.566Z,14.50
2019-03-01T01:03:51.853Z,18.77
2019-03-01T01:06:19.152Z,15.75
2019-03-01T01:08:46.478Z,21.07
2019-03-01T01:11:13.760Z,32.73
2019-03-01T01:13:41.059Z,17.07
2019-03-01T01:16:08.368Z,16.30
2019-03-01T01:18:35.678Z,16.50
2019-03-01T01:21:02.961Z,16.27
2019-03-01T01:23:30.270Z,14.50
2019-03-01T01:25:57.560Z,17.55
2019-03-01T01:28:24.870Z,11.28
2019-03-01T01:30:52.185Z,18.90
2019-03-01T01:33:19.481Z,18.80
2019-03-01T01:35:46.765Z,11.35
2019-03-01T01:38:14.091Z,11.88
2019-03-01T01:40:41.382Z,10.78
2019-03-01T01:43:08.680Z,23.12
2019-03-01T01:45:35.994Z,10.98
2019-03-01T01:48:03.308Z,14.95
2019-03-01T01:50:30.589Z,15.78
2019-03-01T01:52:57.915Z,10.68
2019-03-01T01:55:25.211Z,16.23
2019-03-01T01:57:52.507Z,18.25
2019-03-01T02:00:19.805Z,18.95
2019-03-01T02:02:47.105Z,11.95
2019-03-01T02:05:14.418Z,9.98
2019-03-01T02:07:41.721Z,12.37
2019-03-01T02:10:09.175Z,15.48
2019-03-01T02:12:36.491Z,12.13
2019-03-01T02:15:04.759Z,12.98
2019-03-01T02:17:32.045Z,12.10
2019-03-01T02:19:59.362Z,24.40
2019-03-01T02:22:26.657Z,19.67
2019-03-01T02:24:53.929Z,11.43
2019-03-01T02:27:22.015Z,12.98
2019-03-01T02:29:49.325Z,8.88
2019-03-01T02:32:18.245Z,16.00
2019-03-01T02:34:45.552Z,12.60
2019-03-01T02:37:12.855Z,9.75
2019-03-01T02:39:40.177Z,9.83
2019-03-01T02:42:07.485Z,9.35
2019-03-01T02:44:34.779Z,8.50
2019-03-01T02:47:02.061Z,8.70
2019-03-01T02:49:29.382Z,11.97
2019-03-01T02:51:56.685Z,12.28
2019-03-01T02:54:23.985Z,11.65
2019-03-01T02:56:51.287Z,12.00
2019-03-01T02:59:18.607Z,16.67
2019-03-01T03:01:45.896Z,10.35
2019-03-01T03:04:13.207Z,8.73
2019-03-01T03:06:42.145Z,8.40
2019-03-01T03:09:09.798Z,12.58
2019-03-01T03:11:37.110Z,7.20
2019-03-01T03:14:04.403Z,7.35
2019-03-01T03:16:31.708Z,8.53
2019-03-01T03:18:59.000Z,11.35
2019-03-01T03:21:26.317Z,13.75
2019-03-01T03:23:53.599Z,8.90
2019-03-01T03:26:20.973Z,18.10
2019-03-01T03:28:48.271Z,15.95
2019-03-01T03:31:15.586Z,10.90
2019-03-01T03:33:42.859Z,9.33
2019-03-01T03:36:10.153Z,9.70
2019-03-01T03:38:37.459Z,16.45
2019-03-01T03:41:04.774Z,10.95
2019-03-01T03:43:32.055Z,9.20
2019-03-01T03:45:59.329Z,15.53
2019-03-01T03:48:26.653Z,11.95
2019-03-01T03:50:53.945Z,12.00
2019-03-01T03:53:21.230Z,9.80
2019-03-01T03:55:48.542Z,9.08
2019-03-01T03:58:15.835Z,12.47
2019-03-01T04:00:43.153Z,10.78
2019-03-01T04:03:10.444Z,10.35
2019-03-01T04:05:37.750Z,9.83
2019-03-01T04:08:05.034Z,9.28
2019-03-01T04:10:32.382Z,10.72
2019-03-01T04:12:59.638Z,9.33
2019-03-01T04:15:26.932Z,7.40
2019-03-01T04:17:54.216Z,8.50
2019-03-01T04:20:21.521Z,8.08
2019-03-01T04:22:48.833Z,9.50
2019-03-01T04:25:16.108Z,8.80
2019-03-01T04:27:43.395Z,9.23
2019-03-01T04:30:11.898Z,9.00
2019-03-01T04:32:39.177Z,7.70
2019-03-01T04:35:06.506Z,8.18
2019-03-01T04:37:33.775Z,7.03
2019-03-01T04:40:01.058Z,8.25
2019-03-01T04:42:28.364Z,7.97
2019-03-01T04:44:55.665Z,15.68
2019-03-01T04:47:22.954Z,8.23
2019-03-01T04:49:50.263Z,8.28
2019-03-01T04:52:31.266Z,8.43
2019-03-01T04:54:58.588Z,11.05
2019-03-01T04:57:25.895Z,10.80
2019-03-01T04:59:53.173Z,10.15
2019-03-01T05:02:20.491Z,11.93
2019-03-01T05:04:47.792Z,10.15
2019-03-01T05:07:15.098Z,9.85
2019-03-01T05:09:42.381Z,10.38
2019-03-01T05:12:10.073Z,9.33
2019-03-01T05:14:37.372Z,9.08
2019-03-01T05:17:04.671Z,7.87
2019-03-01T05:19:31.995Z,13.88
2019-03-01T05:21:59.288Z,7.28
2019-03-01T05:24:26.594Z,8.65
2019-03-01T05:26:53.898Z,12.45
2019-03-01T05:29:21.185Z,9.95
2019-03-01T05:31:48.506Z,8.20
2019-03-01T05:34:15.795Z,12.58
2019-03-01T05:36:43.090Z,10.82
2019-03-01T05:39:10.407Z,10.58
2019-03-01T05:41:37.698Z,11.75
2019-03-01T05:44:04.992Z,10.25
2019-03-01T05:46:32.295Z,8.55
2019-03-01T05:48:59.600Z,8.38
2019-03-01T05:51:26.893Z,9.40
2019-03-01T05:53:54.187Z,8.90
2019-03-01T05:56:21.499Z,11.55
2019-03-01T05:58:50.354Z,9.25
2019-03-01T06:01:22.346Z,9.45
2019-03-01T06:03:53.958Z,8.98
2019-03-01T06:06:34.619Z,12.73
2019-03-01T06:09:09.455Z,9.63
2019-03-01T06:11:38.394Z,10.35
2019-03-01T06:14:09.963Z,11.08
2019-03-01T06:16:40.206Z,9.70
2019-03-01T06:19:14.935Z,10.98
2019-03-01T06:21:58.839Z,13.03
2019-03-01T06:24:30.455Z,11.63
2019-03-01T06:27:16.432Z,10.45
2019-03-01T06:29:54.206Z,10.15
2019-03-01T06:32:39.627Z,8.70
2019-03-01T06:35:11.243Z,9.18
2019-03-01T06:37:58.182Z,9.98
2019-03-01T06:40:37.758Z,9.93
2019-03-01T06:43:06.674Z,8.85
2019-03-01T06:45:47.458Z,10.53
2019-03-01T06:48:16.390Z,11.35
2019-03-01T06:50:51.037Z,10.58
2019-03-01T06:53:18.336Z,10.08
2019-03-01T06:55:45.618Z,10.40
2019-03-01T06:58:14.416Z,8.90
2019-03-01T07:00:49.827Z,12.65
2019-03-01T07:03:12.283Z,8.83
2019-03-01T07:05:39.577Z,10.08
2019-03-01T07:08:06.871Z,14.15
2019-03-01T07:10:34.181Z,8.15
2019-03-01T07:13:01.464Z,8.38
2019-03-01T07:15:28.750Z,9.95
2019-03-01T07:17:56.058Z,9.38
2019-03-01T07:20:23.362Z,10.15
2019-03-01T07:22:50.663Z,8.95
2019-03-01T07:25:17.954Z,8.25
2019-03-01T07:27:45.249Z,8.60
2019-03-01T07:30:12.567Z,8.25
2019-03-01T07:32:39.863Z,7.53
2019-03-01T07:35:07.935Z,8.33
2019-03-01T07:37:35.222Z,8.00
2019-03-01T07:40:02.547Z,10.20
2019-03-01T07:42:29.835Z,7.90
2019-03-01T07:44:57.168Z,8.95
2019-03-01T07:47:24.434Z,7.25
2019-03-01T07:49:51.750Z,8.10
2019-03-01T07:52:19.038Z,12.10
2019-03-01T07:54:49.410Z,8.80
2019-03-01T07:57:15.663Z,7.75
2019-03-01T07:59:42.978Z,7.55
2019-03-01T08:02:10.283Z,6.65
2019-03-01T08:04:37.570Z,8.00
2019-03-01T08:07:04.907Z,8.85
2019-03-01T08:09:32.195Z,6.65
2019-03-01T08:11:59.480Z,10.48
2019-03-01T08:14:28.026Z,7.25
2019-03-01T08:16:56.085Z,6.90
2019-03-01T08:19:24.072Z,10.13
2019-03-01T08:21:51.366Z,8.33
2019-03-01T08:24:18.646Z,5.90
2019-03-01T08:26:45.964Z,7.85
2019-03-01T08:29:13.244Z,6.50
2019-03-01T08:31:40.559Z,6.70
2019-03-01T08:34:07.851Z,5.90
2019-03-01T08:36:35.176Z,8.48
2019-03-01T08:39:05.858Z,12.20
2019-03-01T08:41:34.207Z,6.40
2019-03-01T08:44:01.515Z,6.20
2019-03-01T08:46:28.802Z,6.53
2019-03-01T08:48:56.109Z,6.30
2019-03-01T08:51:26.451Z,6.70
2019-03-01T08:53:52.352Z,6.30
2019-03-01T08:56:25.818Z,6.75
2019-03-01T08:58:48.581Z,7.30
2019-03-01T09:01:17.503Z,5.78
2019-03-01T09:03:52.130Z,5.42
2019-03-01T09:06:19.415Z,5.78
2019-03-01T09:08:46.915Z,8.08
2019-03-01T09:11:14.217Z,5.92
2019-03-01T09:13:41.523Z,5.80
2019-03-01T09:16:08.808Z,4.85
2019-03-01T09:18:36.121Z,5.60
2019-03-01T09:21:05.850Z,5.17
2019-03-01T09:23:32.343Z,5.80
2019-03-01T09:25:59.651Z,5.85
2019-03-01T09:28:26.931Z,4.83
2019-03-01T09:30:54.276Z,11.45
2019-03-01T09:33:22.964Z,6.15
2019-03-01T09:35:57.956Z,6.90
2019-03-01T09:38:25.252Z,4.47
2019-03-01T09:40:52.540Z,5.10
2019-03-01T09:43:19.861Z,5.10
2019-03-01T09:45:48.738Z,5.03
2019-03-01T09:48:16.081Z,5.10
2019-03-01T09:50:43.407Z,6.87
2019-03-01T09:53:10.693Z,6.30
2019-03-01T09:55:38.601Z,5.50
2019-03-01T09:58:07.723Z,7.58
2019-03-01T10:00:36.552Z,4.28
2019-03-01T10:03:03.865Z,4.70
2019-03-01T10:05:31.151Z,4.47
2019-03-01T10:07:58.471Z,4.15
2019-03-01T10:10:30.056Z,5.42
2019-03-01T10:12:57.333Z,4.70
2019-03-01T10:15:24.652Z,4.03
2019-03-01T10:17:51.950Z,4.10
2019-03-01T10:20:19.236Z,5.42
2019-03-01T10:22:46.533Z,4.33
2019-03-01T10:25:14.497Z,3.95
2019-03-01T10:27:41.825Z,4.42
2019-03-01T10:30:16.685Z,4.03
2019-03-01T10:32:44.012Z,3.65
2019-03-01T10:35:11.574Z,4.90
2019-03-01T10:37:38.874Z,7.22
2019-03-01T10:40:07.950Z,5.05
2019-03-01T10:42:35.258Z,3.92
2019-03-01T10:45:02.642Z,5.20
2019-03-01T10:47:29.963Z,4.83
2019-03-01T10:49:57.250Z,12.33
2019-03-01T10:52:24.538Z,3.98
2019-03-01T10:54:51.856Z,4.10
2019-03-01T10:57:19.141Z,2.92
2019-03-01T10:59:46.429Z,4.00
2019-03-01T11:02:13.747Z,4.25
2019-03-01T11:04:41.035Z,4.30
2019-03-01T11:07:08.347Z,3.02
2019-03-01T11:09:35.643Z,4.12
2019-03-01T11:12:02.945Z,4.75
2019-03-01T11:14:30.263Z,4.50
2019-03-01T11:16:57.580Z,4.17
2019-03-01T11:19:24.883Z,2.70
2019-03-01T11:21:52.208Z,5.05
2019-03-01T11:24:19.514Z,8.78
2019-03-01T11:26:46.837Z,3.55
2019-03-01T11:29:14.138Z,4.08
2019-03-01T11:31:41.432Z,3.10
2019-03-01T11:34:08.752Z,6.00
2019-03-01T11:36:36.040Z,3.50
2019-03-01T11:39:04.531Z,4.15
2019-03-01T11:41:31.848Z,2.77
2019-03-01T11:43:59.140Z,4.28
2019-03-01T11:46:26.446Z,2.50
2019-03-01T11:48:53.767Z,2.80
2019-03-01T11:51:21.075Z,4.00
2019-03-01T11:53:48.373Z,3.90
2019-03-01T11:56:15.687Z,2.98
2019-03-01T11:58:43.192Z,3.20
2019-03-01T12:01:16.933Z,5.20
2019-03-01T12:03:39.402Z,4.22
2019-03-01T12:06:06.706Z,3.00
2019-03-01T12:08:34.842Z,4.00
2019-03-01T12:11:02.454Z,4.15
2019-03-01T12:13:31.193Z,2.83
2019-03-01T12:16:00.775Z,6.30
2019-03-01T12:18:30.619Z,3.62
2019-03-01T12:21:00.121Z,3.35
2019-03-01T12:23:29.583Z,3.50
2019-03-01T12:25:58.672Z,18.95
2019-03-01T12:28:28.307Z,7.12
2019-03-01T12:30:57.791Z,5.80
2019-03-01T12:33:28.155Z,6.05
2019-03-01T12:35:57.545Z,2.70
2019-03-01T12:38:26.934Z,4.17
2019-03-01T12:40:54.351Z,3.25
2019-03-01T12:43:21.671Z,5.05
2019-03-01T12:45:48.963Z,5.05
2019-03-01T12:48:16.267Z,3.67
2019-03-01T12:50:43.579Z,3.83
2019-03-01T12:53:10.866Z,10.70
2019-03-01T12:55:38.170Z,7.28
2019-03-01T12:58:05.465Z,4.67
2019-03-01T13:00:33.320Z,2.62
2019-03-01T13:03:00.618Z,3.47
2019-03-01T13:05:29.117Z,3.47
2019-03-01T13:07:57.128Z,3.83
2019-03-01T13:10:25.410Z,2.80
2019-03-01T13:12:54.603Z,4.10
2019-03-01T13:15:21.687Z,6.03
2019-03-01T13:17:49.980Z,4.75
2019-03-01T13:20:17.845Z,8.08
2019-03-01T13:22:45.133Z,7.72
2019-03-01T13:25:12.449Z,3.00
2019-03-01T13:27:39.754Z,5.20
2019-03-01T13:30:16.938Z,5.60
2019-03-01T13:32:44.257Z,5.85
2019-03-01T13:35:16.318Z,10.08
2019-03-01T13:37:43.570Z,7.33
2019-03-01T13:40:11.858Z,5.45
2019-03-01T13:42:39.141Z,8.68
2019-03-01T13:45:08.195Z,7.97
2019-03-01T13:47:35.490Z,7.35
2019-03-01T13:50:06.737Z,5.28
2019-03-01T13:52:33.018Z,7.80
2019-03-01T13:55:00.327Z,7.53
2019-03-01T13:57:28.072Z,13.45
2019-03-01T13:59:55.408Z,4.08
2019-03-01T14:02:22.718Z,6.72
2019-03-01T14:04:50.010Z,6.28
2019-03-01T14:07:17.294Z,4.30
2019-03-01T14:09:44.607Z,9.10
2019-03-01T14:12:12.071Z,6.85
2019-03-01T14:14:39.359Z,4.58
2019-03-01T14:17:06.647Z,5.10
2019-03-01T14:19:33.955Z,5.97
2019-03-01T14:22:01.292Z,6.03
2019-03-01T14:24:29.507Z,9.38
2019-03-01T14:26:59.135Z,6.05
2019-03-01T14:29:26.493Z,5.28
2019-03-01T14:31:53.783Z,6.20
2019-03-01T14:34:21.067Z,5.70
2019-03-01T14:36:48.384Z,5.40
2019-03-01T14:39:15.965Z,5.62
2019-03-01T14:41:43.242Z,17.30
2019-03-01T14:44:10.550Z,6.40
2019-03-01T14:46:37.839Z,7.45
2019-03-01T14:49:05.154Z,6.87
2019-03-01T14:51:32.430Z,9.48
2019-03-01T14:53:59.750Z,6.75
2019-03-01T14:56:31.279Z,7.25
2019-03-01T14:58:59.114Z,6.30
2019-03-01T15:01:31.504Z,6.22
2019-03-01T15:03:58.793Z,6.53
2019-03-01T15:06:26.084Z,7.90
2019-03-01T15:08:53.402Z,7.67
2019-03-01T15:11:20.762Z,6.83
2019-03-01T15:13:48.052Z,6.28
2019-03-01T15:16:15.360Z,8.43
2019-03-01T15:18:42.922Z,4.42
2019-03-01T15:21:10.797Z,4.12
2019-03-01T15:23:38.090Z,6.37
2019-03-01T15:26:05.425Z,6.78
2019-03-01T15:28:32.701Z,5.17
2019-03-01T15:30:59.981Z,4.78
2019-03-01T15:33:27.290Z,5.75
2019-03-01T15:35:54.573Z,2.95
2019-03-01T15:38:23.777Z,2.95
2019-03-01T15:40:51.936Z,4.60
2019-03-01T15:43:20.218Z,2.80
2019-03-01T15:45:48.625Z,4.35
2019-03-01T15:48:17.166Z,3.37
2019-03-01T15:50:45.646Z,3.65
2019-03-01T15:53:14.493Z,3.37
2019-03-01T15:55:43.287Z,5.10
2019-03-01T15:58:11.957Z,3.00
2019-03-01T16:00:40.942Z,4.08
2019-03-01T16:03:10.808Z,4.30
2019-03-01T16:05:38.363Z,5.50
2019-03-01T16:08:08.255Z,7.25
2019-03-01T16:10:36.154Z,6.35
2019-03-01T16:13:03.503Z,7.08
2019-03-01T16:15:30.799Z,6.12
2019-03-01T16:18:01.123Z,6.28
2019-03-01T16:20:29.284Z,10.28
2019-03-01T16:22:57.528Z,6.50
2019-03-01T16:25:26.286Z,6.67
2019-03-01T16:27:54.266Z,8.20
2019-03-01T16:30:23.249Z,6.95
2019-03-01T16:32:50.812Z,7.30
2019-03-01T16:35:18.917Z,10.05
2019-03-01T16:37:49.188Z,7.33
2019-03-01T16:40:18.031Z,7.53
2019-03-01T16:42:52.817Z,9.35
2019-03-01T16:45:17.646Z,7.37
2019-03-01T16:47:46.661Z,10.28
2019-03-01T16:50:16.110Z,8.78
2019-03-01T16:52:44.654Z,7.83
2019-03-01T16:55:14.742Z,7.10
2019-03-01T16:57:43.182Z,7.62
2019-03-01T17:00:18.317Z,8.40
2019-03-01T17:02:48.708Z,6.25
2019-03-01T17:05:17.369Z,6.92
2019-03-01T17:07:45.566Z,7.37
2019-03-01T17:10:15.841Z,13.43
2019-03-01T17:12:44.306Z,7.42
2019-03-01T17:15:14.658Z,8.30
2019-03-01T17:17:43.263Z,8.48
2019-03-01T17:20:11.469Z,8.68
2019-03-01T17:22:39.539Z,6.70
2019-03-01T17:25:08.520Z,15.40
2019-03-01T17:27:36.783Z,10.58
2019-03-01T17:30:05.960Z,9.88
2019-03-01T17:32:34.193Z,10.82
2019-03-01T17:35:04.874Z,7.75
2019-03-01T17:37:33.585Z,7.33
2019-03-01T17:40:01.796Z,11.40
2019-03-01T17:42:29.951Z,8.10
2019-03-01T17:44:58.467Z,7.12
2019-03-01T17:47:26.550Z,8.80
2019-03-01T17:49:54.806Z,8.40
2019-03-01T17:52:22.215Z,9.18
2019-03-01T17:54:49.502Z,9.75
2019-03-01T17:57:16.844Z,8.55
2019-03-01T17:59:44.638Z,6.75
2019-03-01T18:02:14.967Z,8.13
2019-03-01T18:04:41.988Z,6.15
2019-03-01T18:07:09.322Z,18.87
2019-03-01T18:09:36.620Z,7.20
2019-03-01T18:12:03.897Z,8.78
2019-03-01T18:14:33.800Z,7.67
2019-03-01T18:17:00.424Z,7.90
2019-03-01T18:19:28.545Z,11.60
2019-03-01T18:21:55.829Z,11.33
2019-03-01T18:24:23.134Z,10.48
2019-03-01T18:26:51.347Z,8.28
2019-03-01T18:29:18.634Z,9.98
2019-03-01T18:31:45.938Z,7.97
2019-03-01T18:34:13.227Z,8.40
2019-03-01T18:36:40.525Z,9.75
2019-03-01T18:39:10.635Z,9.00
2019-03-01T18:41:37.920Z,10.75
2019-03-01T18:44:05.234Z,9.73
2019-03-01T18:46:32.524Z,11.83
2019-03-01T18:48:59.838Z,12.88
2019-03-01T18:51:27.159Z,14.50
2019-03-01T18:53:54.479Z,8.95
2019-03-01T18:56:24.933Z,8.75
2019-03-01T18:58:50.704Z,13.62
2019-03-01T19:01:18.031Z,14.53
2019-03-01T19:03:45.363Z,9.80
2019-03-01T19:06:15.892Z,11.40
2019-03-01T19:08:41.634Z,8.58
2019-03-01T19:11:08.940Z,10.08
2019-03-01T19:13:36.259Z,15.23
2019-03-01T19:16:03.581Z,9.43
2019-03-01T19:18:30.875Z,10.13
2019-03-01T19:20:58.167Z,11.33
2019-03-01T19:23:25.891Z,9.88
2019-03-01T19:25:53.190Z,14.28
2019-03-01T19:28:20.474Z,12.53
2019-03-01T19:30:49.343Z,11.93
2019-03-01T19:33:17.242Z,9.88
2019-03-01T19:35:44.635Z,10.50
2019-03-01T19:38:11.972Z,10.40
2019-03-01T19:40:39.254Z,15.20
2019-03-01T19:43:06.898Z,14.25
2019-03-01T19:45:37.547Z,17.23
2019-03-01T19:48:04.468Z,16.42
2019-03-01T19:50:31.786Z,14.90
2019-03-01T19:52:59.080Z,16.42
2019-03-01T19:55:26.387Z,17.15
2019-03-01T19:57:53.697Z,18.35
2019-03-01T20:00:25.586Z,21.33
2019-03-01T20:02:52.889Z,25.97
2019-03-01T20:05:21.805Z,21.15
2019-03-01T20:07:51.775Z,28.83
2019-03-01T20:10:18.111Z,27.98
2019-03-01T20:12:45.406Z,33.67
2019-03-01T20:15:16.610Z,26.80
2019-03-01T20:17:44.605Z,28.05
2019-03-01T20:20:13.241Z,28.77
2019-03-01T20:22:40.570Z,30.72
2019-03-01T20:25:09.135Z,32.03
2019-03-01T20:27:39.080Z,29.90
2019-03-01T20:30:07.025Z,44.15
2019-03-01T20:32:34.328Z,32.38
2019-03-01T20:35:01.659Z,36.00
2019-03-01T20:37:28.946Z,43.20
2019-03-01T20:39:56.246Z,40.23
2019-03-01T20:42:24.503Z,36.77
2019-03-01T20:44:53.097Z,41.63
2019-03-01T20:47:22.907Z,39.33
2019-03-01T20:49:49.800Z,43.75
2019-03-01T20:52:17.098Z,41.37
2019-03-01T20:54:44.402Z,42.40
2019-03-01T20:57:11.717Z,44.23
2019-03-01T20:59:39.141Z,53.87
2019-03-01T21:02:09.532Z,50.48
2019-03-01T21:04:36.675Z,48.48
2019-03-01T21:07:04.284Z,54.27
2019-03-01T21:09:31.611Z,47.15
2019-03-01T21:12:01.068Z,51.85
2019-03-01T21:14:27.907Z,47.90
2019-03-01T21:16:55.158Z,51.42
2019-03-01T21:19:22.454Z,47.20
2019-03-01T21:21:49.746Z,44.80
2019-03-01T21:24:17.052Z,55.30
2019-03-01T21:26:44.345Z,46.42
2019-03-01T21:29:12.444Z,43.35
2019-03-01T21:31:40.686Z,52.08
2019-03-01T21:34:07.978Z,42.93
2019-03-01T21:36:35.294Z,44.93
2019-03-01T21:39:04.739Z,46.08
2019-03-01T21:41:32.091Z,47.70
2019-03-01T21:43:59.399Z,49.30
2019-03-01T21:46:26.717Z,49.40
2019-03-01T21:48:56.794Z,43.78
2019-03-01T21:51:22.960Z,45.63
2019-03-01T21:53:50.281Z,40.43
2019-03-01T21:56:17.579Z,41.53
2019-03-01T21:58:44.868Z,46.98
2019-03-01T22:01:12.181Z,42.38
2019-03-01T22:03:40.724Z,37.95
2019-03-01T22:06:08.166Z,38.00
2019-03-01T22:08:35.457Z,41.53
2019-03-01T22:11:02.783Z,38.80
2019-03-01T22:13:32.567Z,42.58
2019-03-01T22:16:00.965Z,35.85
2019-03-01T22:18:27.975Z,42.33
2019-03-01T22:20:55.283Z,40.55
2019-03-01T22:23:22.597Z,46.13
2019-03-01T22:25:49.917Z,44.75
2019-03-01T22:28:17.223Z,48.02
2019-03-01T22:30:44.518Z,43.73
2019-03-01T22:33:11.832Z,42.83
2019-03-01T22:35:40.479Z,49.85
2019-03-01T22:38:08.135Z,45.80
2019-03-01T22:40:35.439Z,46.08
2019-03-01T22:43:02.738Z,45.90
2019-03-01T22:45:30.057Z,49.45
2019-03-01T22:47:57.344Z,44.25
2019-03-01T22:50:24.643Z,47.20
2019-03-01T22:52:51.959Z,44.90
2019-03-01T22:55:19.512Z,50.50
2019-03-01T22:57:46.854Z,46.58
2019-03-01T23:00:29.519Z,46.45
2019-03-01T23:02:57.000Z,44.18
2019-03-01T23:05:24.297Z,40.00
2019-03-01T23:07:51.642Z,47.50
2019-03-01T23:10:21.531Z,47.35
2019-03-01T23:12:47.905Z,49.67
2019-03-01T23:15:15.198Z,41.05
2019-03-01T23:17:42.503Z,47.25
2019-03-01T23:20:10.681Z,47.43
2019-03-01T23:22:37.978Z,46.02
2019-03-01T23:25:07.603Z,54.77
2019-03-01T23:27:34.403Z,44.63
2019-03-01T23:30:01.712Z,49.13
2019-03-01T23:32:29.025Z,53.63
2019-03-01T23:34:56.353Z,49.67
2019-03-01T23:37:23.702Z,45.55
2019-03-01T23:39:51.003Z,55.88
2019-03-01T23:42:20.775Z,44.70
2019-03-01T23:44:47.287Z,49.93
2019-03-01T23:47:14.579Z,52.05
2019-03-01T23:49:41.897Z,53.63
2019-03-01T23:52:09.229Z,47.70
2019-03-01T23:54:36.517Z,46.53
2019-03-01T23:57:05.709Z,55.43
2019-03-01T23:59:32.783Z,50.58
